Time;durP1;ratioP1;P1;durP2;ratioP2;P2;SDS_P1;SDS_P2;PMS_P1;PMS_P2;Temp;Humidity;BMP_temperature;BMP_pressure;BME280_temperature;BME280_humidity;BME280_pressure;Samples;Min_cycle;Max_cycle;Signal;HPM_P1;HPM_P2
2022/07/20 00:01:54;;;;;;;10.50;3.65;;;22.10;99.90;;;;;;5114980;28;20020;-68
2022/07/20 00:04:20;;;;;;;8.73;4.00;;;21.80;99.90;;;;;;5115157;28;20080;-68
2022/07/20 00:06:45;;;;;;;8.10;3.13;;;21.80;99.90;;;;;;5114966;28;20483;-69
2022/07/20 00:11:55;;;;;;;13.60;3.42;;;21.90;99.90;;;;;;5115706;28;20086;-68
2022/07/20 00:14:21;;;;;;;9.50;3.60;;;21.80;99.90;;;;;;5114997;28;20032;-68
2022/07/20 00:16:47;;;;;;;8.13;3.53;;;21.80;99.90;;;;;;5114856;28;20460;-68
2022/07/20 00:19:12;;;;;;;7.63;3.58;;;21.60;99.90;;;;;;5114730;28;20084;-68
2022/07/20 00:21:38;;;;;;;8.95;3.42;;;21.60;99.90;;;;;;5114711;28;20480;-70
2022/07/20 00:24:05;;;;;;;9.40;3.38;;;21.60;99.90;;;;;;5114890;28;20043;-68
2022/07/20 00:26:31;;;;;;;7.43;3.20;;;21.70;99.90;;;;;;5114662;28;20037;-68
2022/07/20 00:28:57;;;;;;;6.28;3.33;;;22.10;99.90;;;;;;5114608;28;20095;-68
2022/07/20 00:31:23;;;;;;;9.23;3.47;;;22.00;99.90;;;;;;5114720;28;20030;-68
2022/07/20 00:33:48;;;;;;;9.98;3.75;;;21.60;99.90;;;;;;5114507;28;20078;-68
2022/07/20 00:36:16;;;;;;;7.90;3.55;;;21.50;99.90;;;;;;5114437;28;20100;-69
2022/07/20 00:38:42;;;;;;;6.82;3.20;;;21.50;99.90;;;;;;5114401;28;20462;-69
2022/07/20 00:41:08;;;;;;;7.85;3.10;;;22.10;99.90;;;;;;5114439;28;20031;-69
2022/07/20 00:44:05;;;;;;;8.60;3.25;;;22.30;99.90;;;;;;5114358;28;20036;-69
2022/07/20 00:46:37;;;;;;;7.75;3.70;;;22.70;99.90;;;;;;5114689;28;20035;-69
2022/07/20 00:49:07;;;;;;;7.97;3.38;;;22.90;99.90;;;;;;5114435;28;20024;-69
2022/07/20 00:51:34;;;;;;;8.48;3.45;;;23.20;99.90;;;;;;5095945;28;20016;-69
2022/07/20 00:54:00;;;;;;;10.95;3.45;;;23.20;99.90;;;;;;5113941;28;20035;-69
2022/07/20 00:56:26;;;;;;;6.53;3.38;;;23.20;99.90;;;;;;5114181;28;20484;-69
2022/07/20 00:58:52;;;;;;;8.20;3.70;;;23.10;99.90;;;;;;5114060;28;20023;-69
2022/07/20 01:01:18;;;;;;;8.63;3.90;;;22.60;99.90;;;;;;5113933;28;20104;-68
2022/07/20 01:03:44;;;;;;;10.45;3.80;;;22.30;99.90;;;;;;5114106;28;20047;-69
2022/07/20 01:06:11;;;;;;;10.63;4.13;;;22.70;99.90;;;;;;5113959;28;20488;-69
2022/07/20 01:08:36;;;;;;;10.50;4.45;;;22.60;99.90;;;;;;5113853;28;20019;-69
2022/07/20 01:11:05;;;;;;;7.65;3.58;;;22.60;99.90;;;;;;5114283;28;20028;-69
2022/07/20 01:13:31;;;;;;;6.65;3.33;;;22.50;99.90;;;;;;5113808;28;20027;-69
2022/07/20 01:15:57;;;;;;;8.18;3.38;;;22.90;99.90;;;;;;5113830;28;20020;-69
2022/07/20 01:18:23;;;;;;;8.70;3.58;;;23.00;99.90;;;;;;5113608;28;20031;-69
2022/07/20 01:20:50;;;;;;;9.85;3.78;;;23.00;99.90;;;;;;5113551;28;20031;-70
2022/07/20 01:23:17;;;;;;;7.88;3.50;;;22.90;99.90;;;;;;5114043;28;20111;-68
2022/07/20 01:25:43;;;;;;;9.95;4.10;;;22.90;99.90;;;;;;5113644;28;20058;-69
2022/07/20 01:28:11;;;;;;;6.22;3.25;;;22.50;99.90;;;;;;5113660;28;20038;-69
2022/07/20 01:30:38;;;;;;;8.55;3.70;;;22.20;99.90;;;;;;5113855;28;20061;-68
2022/07/20 01:33:04;;;;;;;6.25;3.60;;;21.80;99.90;;;;;;5095207;28;20039;-68
2022/07/20 01:35:30;;;;;;;8.02;3.40;;;21.70;99.90;;;;;;5112951;28;20023;-69
2022/07/20 01:37:56;;;;;;;6.82;3.47;;;21.80;99.90;;;;;;5113078;28;20088;-69
2022/07/20 01:40:21;;;;;;;9.77;3.50;;;21.90;99.90;;;;;;5112920;28;20441;-68
2022/07/20 01:42:47;;;;;;;8.00;3.70;;;22.40;99.90;;;;;;5113022;28;20036;-69
2022/07/20 01:45:13;;;;;;;9.07;3.92;;;21.90;99.90;;;;;;5113377;28;20023;-68
2022/07/20 01:47:39;;;;;;;9.50;3.83;;;22.20;99.90;;;;;;5113462;28;20027;-69
2022/07/20 01:50:06;;;;;;;8.52;3.55;;;22.00;99.90;;;;;;5112766;28;20077;-68
2022/07/20 01:52:32;;;;;;;7.13;3.20;;;21.90;99.90;;;;;;5094857;28;20059;-69
2022/07/20 01:54:57;;;;;;;7.07;3.40;;;21.80;99.90;;;;;;5113072;28;20628;-69
2022/07/20 01:57:23;;;;;;;8.23;3.60;;;22.40;99.90;;;;;;5113487;28;20024;-69
2022/07/20 01:59:49;;;;;;;8.00;3.55;;;22.50;99.90;;;;;;5112911;28;20028;-69
2022/07/20 02:02:15;;;;;;;10.40;3.80;;;22.60;99.90;;;;;;5112692;28;20032;-69
2022/07/20 02:04:40;;;;;;;7.65;3.35;;;22.40;99.90;;;;;;5094309;28;20027;-69
2022/07/20 02:07:06;;;;;;;6.45;3.35;;;22.50;99.90;;;;;;5113199;28;20548;-69
2022/07/20 02:09:32;;;;;;;10.70;3.95;;;22.30;99.90;;;;;;5112824;28;20129;-69
2022/07/20 02:11:57;;;;;;;9.82;4.30;;;22.10;99.90;;;;;;5094599;28;20055;-69
2022/07/20 02:14:23;;;;;;;7.45;3.85;;;22.10;99.90;;;;;;5112757;28;20023;-69
2022/07/20 02:16:49;;;;;;;6.47;3.75;;;21.80;99.90;;;;;;5112757;28;20485;-69
2022/07/20 02:19:15;;;;;;;8.18;4.03;;;21.60;99.90;;;;;;5112637;28;20024;-69
2022/07/20 02:21:40;;;;;;;10.48;4.00;;;21.50;99.90;;;;;;5112605;28;20455;-68
2022/07/20 02:24:06;;;;;;;8.23;4.20;;;21.30;99.90;;;;;;5113157;28;20034;-68
2022/07/20 02:26:32;;;;;;;7.55;3.80;;;21.20;99.90;;;;;;5112755;28;20027;-69
2022/07/20 02:28:58;;;;;;;8.20;3.90;;;21.30;99.90;;;;;;5112539;28;20102;-69
2022/07/20 02:31:23;;;;;;;8.65;3.90;;;21.80;99.90;;;;;;5112390;28;20027;-69
2022/07/20 02:33:50;;;;;;;9.38;4.10;;;22.10;99.90;;;;;;5112297;28;20019;-69
2022/07/20 02:36:17;;;;;;;6.35;3.50;;;22.30;99.90;;;;;;5094782;28;20059;-69
2022/07/20 02:38:43;;;;;;;7.90;3.53;;;22.50;99.90;;;;;;5112346;28;20027;-69
2022/07/20 02:41:09;;;;;;;7.63;3.80;;;22.50;99.90;;;;;;5112254;28;20365;-69
2022/07/20 02:43:35;;;;;;;12.73;4.15;;;22.60;99.90;;;;;;5112404;28;20031;-69
2022/07/20 02:46:01;;;;;;;9.70;3.97;;;22.60;99.90;;;;;;5112313;28;20031;-69
2022/07/20 02:48:27;;;;;;;9.93;4.05;;;22.60;99.90;;;;;;5111982;28;20028;-69
2022/07/20 02:50:53;;;;;;;9.60;3.63;;;22.50;99.90;;;;;;5112381;28;20031;-69
2022/07/20 02:53:18;;;;;;;8.68;3.38;;;22.60;99.90;;;;;;5116244;28;20023;-69
2022/07/20 02:55:44;;;;;;;6.72;3.70;;;22.50;99.90;;;;;;5116575;28;20019;-69
2022/07/20 02:58:12;;;;;;;8.25;3.53;;;22.60;99.90;;;;;;5116460;28;20115;-69
2022/07/20 03:00:38;;;;;;;9.95;3.95;;;22.70;99.90;;;;;;5116363;28;20106;-69
2022/07/20 03:03:05;;;;;;;9.82;3.75;;;22.80;99.90;;;;;;5115958;28;20085;-69
2022/07/20 03:05:31;;;;;;;10.48;3.88;;;22.60;99.90;;;;;;5116604;28;20449;-69
2022/07/20 03:07:57;;;;;;;7.30;3.70;;;22.60;99.90;;;;;;5116394;28;20030;-70
2022/07/20 03:10:23;;;;;;;8.32;3.67;;;22.80;99.90;;;;;;5116367;28;20024;-70
2022/07/20 03:12:49;;;;;;;8.35;3.90;;;22.50;99.90;;;;;;5097953;28;20023;-69
2022/07/20 03:15:14;;;;;;;7.70;3.70;;;22.30;99.90;;;;;;5116045;28;20020;-69
2022/07/20 03:17:48;;;;;;;9.68;4.32;;;22.60;99.90;;;;;;5116180;28;20023;-69
2022/07/20 03:20:19;;;;;;;8.10;3.63;;;22.50;99.90;;;;;;5116111;28;20020;-69
2022/07/20 03:22:45;;;;;;;7.40;3.78;;;22.50;99.90;;;;;;5097465;28;20377;-69
2022/07/20 03:25:10;;;;;;;9.38;4.32;;;22.40;99.90;;;;;;5116182;28;20023;-69
2022/07/20 03:27:37;;;;;;;7.72;4.00;;;22.50;99.90;;;;;;5116210;28;20472;-69
2022/07/20 03:30:07;;;;;;;8.07;4.15;;;22.70;99.90;;;;;;5115891;28;20020;-69
2022/07/20 03:32:33;;;;;;;8.82;4.13;;;22.70;99.90;;;;;;5115621;28;20023;-69
2022/07/20 03:34:58;;;;;;;7.85;3.63;;;22.80;99.90;;;;;;5115787;28;20052;-69
2022/07/20 03:37:24;;;;;;;9.75;4.25;;;22.70;99.90;;;;;;5115801;28;20136;-69
2022/07/20 03:39:51;;;;;;;10.43;4.13;;;22.80;99.90;;;;;;5115654;28;20165;-69
2022/07/20 03:42:16;;;;;;;11.63;4.40;;;22.60;99.90;;;;;;5115429;28;20038;-69
2022/07/20 03:44:42;;;;;;;7.38;3.78;;;22.70;99.90;;;;;;5115990;28;20024;-69
2022/07/20 03:47:08;;;;;;;10.48;4.07;;;22.60;99.90;;;;;;5115330;28;20016;-69
2022/07/20 03:49:33;;;;;;;7.45;3.83;;;22.70;99.90;;;;;;5115404;28;20590;-69
2022/07/20 03:51:59;;;;;;;11.57;4.43;;;22.50;99.90;;;;;;5115613;28;20108;-69
2022/07/20 03:54:25;;;;;;;6.50;3.53;;;22.40;99.90;;;;;;5115845;28;20019;-69
2022/07/20 03:56:50;;;;;;;9.38;3.88;;;22.40;99.90;;;;;;5115153;28;20031;-69
2022/07/20 03:59:16;;;;;;;7.82;4.13;;;22.40;99.90;;;;;;5115366;28;20028;-69
2022/07/20 04:01:42;;;;;;;10.60;4.68;;;22.20;99.90;;;;;;5114895;28;20034;-69
2022/07/20 04:04:08;;;;;;;10.20;3.92;;;22.20;99.90;;;;;;5114851;28;20055;-69
2022/07/20 04:06:35;;;;;;;10.68;4.20;;;22.50;99.90;;;;;;5115116;28;20475;-69
2022/07/20 04:09:01;;;;;;;8.38;4.22;;;22.60;99.90;;;;;;5115454;28;20488;-69
2022/07/20 04:11:27;;;;;;;11.48;4.43;;;22.40;99.90;;;;;;5096740;28;20034;-70
2022/07/20 04:13:53;;;;;;;8.00;4.30;;;22.40;99.90;;;;;;5114968;28;20023;-69
2022/07/20 04:16:19;;;;;;;9.48;4.03;;;22.40;99.90;;;;;;5114651;28;20028;-69
2022/07/20 04:18:45;;;;;;;8.27;4.15;;;22.50;99.90;;;;;;5114868;28;20028;-69
2022/07/20 04:21:10;;;;;;;17.10;4.75;;;22.50;99.90;;;;;;5114762;28;20024;-69
2022/07/20 04:23:36;;;;;;;11.00;4.70;;;22.50;99.90;;;;;;5114838;28;20023;-69
2022/07/20 04:26:03;;;;;;;9.15;4.20;;;22.50;99.90;;;;;;5114808;28;20028;-69
2022/07/20 04:28:28;;;;;;;8.23;4.30;;;22.50;99.90;;;;;;5115172;28;20016;-69
2022/07/20 04:30:54;;;;;;;11.05;4.40;;;22.50;99.90;;;;;;5114229;28;20156;-68
2022/07/20 04:33:20;;;;;;;7.95;3.80;;;22.60;99.90;;;;;;5114662;28;20024;-68
2022/07/20 04:35:46;;;;;;;7.65;4.10;;;22.50;99.90;;;;;;5114838;28;20040;-68
2022/07/20 04:38:17;;;;;;;11.95;4.55;;;22.30;99.90;;;;;;5114371;28;20031;-68
2022/07/20 04:40:43;;;;;;;7.97;4.30;;;22.30;99.90;;;;;;5114307;28;20023;-68
2022/07/20 04:43:08;;;;;;;9.32;4.55;;;22.40;99.90;;;;;;5114339;28;20036;-68
2022/07/20 04:45:34;;;;;;;7.45;4.05;;;22.50;99.90;;;;;;5114444;28;20381;-69
2022/07/20 04:48:00;;;;;;;7.97;4.07;;;22.40;99.90;;;;;;5114500;28;20224;-68
2022/07/20 04:50:26;;;;;;;8.93;4.45;;;22.40;99.90;;;;;;5114248;28;20023;-68
2022/07/20 04:52:51;;;;;;;10.25;4.88;;;22.40;99.90;;;;;;5114101;28;20092;-69
2022/07/20 04:55:17;;;;;;;10.80;4.35;;;22.30;99.90;;;;;;5114536;28;20022;-69
2022/07/20 04:57:43;;;;;;;9.10;4.45;;;22.40;99.90;;;;;;5114258;28;20564;-69
2022/07/20 05:00:09;;;;;;;7.47;4.38;;;22.20;99.90;;;;;;5113947;28;20060;-69
2022/07/20 05:02:35;;;;;;;8.15;4.22;;;22.20;99.90;;;;;;5114454;28;20480;-68
2022/07/20 05:05:01;;;;;;;8.90;5.07;;;22.30;99.90;;;;;;5114146;28;20022;-69
2022/07/20 05:07:26;;;;;;;8.18;5.13;;;22.40;99.90;;;;;;5113832;28;20433;-68
2022/07/20 05:09:52;;;;;;;10.38;6.57;;;22.60;99.90;;;;;;5113783;28;20015;-70
2022/07/20 05:12:18;;;;;;;11.52;6.63;;;22.60;99.90;;;;;;5114150;28;20484;-69
2022/07/20 05:14:43;;;;;;;10.73;6.22;;;22.50;99.90;;;;;;5112750;28;20103;-69
2022/07/20 05:17:09;;;;;;;22.38;13.77;;;22.50;99.90;;;;;;5113908;28;20468;-68
2022/07/20 05:19:35;;;;;;;19.58;14.55;;;22.10;99.90;;;;;;5114068;28;20032;-69
2022/07/20 05:22:00;;;;;;;14.45;11.30;;;21.90;99.90;;;;;;5113785;28;20040;-68
2022/07/20 05:24:26;;;;;;;25.80;19.25;;;22.30;99.90;;;;;;5113517;28;20028;-68
2022/07/20 05:26:52;;;;;;;27.98;20.05;;;22.30;99.90;;;;;;5113997;28;20027;-70
2022/07/20 05:29:18;;;;;;;30.63;25.25;;;22.20;99.90;;;;;;5113317;28;20129;-68
2022/07/20 05:31:43;;;;;;;26.48;22.80;;;22.20;99.90;;;;;;5113385;28;20043;-68
2022/07/20 05:34:09;;;;;;;27.33;21.48;;;22.10;99.90;;;;;;5113369;28;20061;-67
2022/07/20 05:36:35;;;;;;;24.25;20.67;;;22.20;99.90;;;;;;5113613;28;20063;-69
2022/07/20 05:39:00;;;;;;;25.40;19.80;;;22.10;99.90;;;;;;5113090;28;20020;-68
2022/07/20 05:41:26;;;;;;;23.08;18.77;;;22.30;99.90;;;;;;5113187;28;20395;-69
2022/07/20 05:43:52;;;;;;;24.13;18.75;;;22.10;99.90;;;;;;5112985;28;20028;-69
2022/07/20 05:46:18;;;;;;;21.05;15.88;;;22.10;99.90;;;;;;5113726;28;20024;-68
2022/07/20 05:48:43;;;;;;;19.30;15.35;;;22.10;99.90;;;;;;5113116;28;20026;-68
2022/07/20 05:51:09;;;;;;;19.38;15.88;;;21.90;99.90;;;;;;5113155;28;20034;-69
2022/07/20 05:53:35;;;;;;;19.73;14.05;;;21.90;99.90;;;;;;5113069;28;20035;-66
2022/07/20 05:56:01;;;;;;;20.60;14.80;;;22.20;99.90;;;;;;5113478;28;20008;-69
2022/07/20 05:58:26;;;;;;;17.48;13.50;;;22.20;99.90;;;;;;5112788;28;20027;-67
2022/07/20 06:00:52;;;;;;;19.80;12.40;;;22.30;99.90;;;;;;5113015;28;20089;-68
2022/07/20 06:03:18;;;;;;;18.33;13.40;;;22.20;99.90;;;;;;5112881;28;20113;-70
2022/07/20 06:05:43;;;;;;;19.15;13.15;;;22.30;99.90;;;;;;5112990;28;20062;-75
2022/07/20 06:08:09;;;;;;;16.38;12.25;;;22.50;99.90;;;;;;5113222;28;20073;-71
2022/07/20 06:10:36;;;;;;;15.68;11.40;;;22.40;99.90;;;;;;5113029;28;20023;-70
2022/07/20 06:13:03;;;;;;;16.52;12.18;;;22.30;99.90;;;;;;5112523;28;20020;-68
2022/07/20 06:15:29;;;;;;;16.98;11.90;;;22.40;99.90;;;;;;5112608;28;20391;-66
2022/07/20 06:17:55;;;;;;;16.63;12.02;;;22.40;99.90;;;;;;5094868;28;20020;-67
2022/07/20 06:20:22;;;;;;;18.63;11.93;;;22.50;99.90;;;;;;5112710;28;20469;-67
2022/07/20 06:22:49;;;;;;;14.60;11.93;;;22.40;99.90;;;;;;5111936;28;20040;-66
2022/07/20 06:25:17;;;;;;;18.42;11.88;;;22.50;99.90;;;;;;5112721;28;20020;-64
2022/07/20 06:27:43;;;;;;;17.60;12.98;;;22.30;99.90;;;;;;5112516;28;20053;-63
2022/07/20 06:30:10;;;;;;;15.98;11.88;;;22.40;99.90;;;;;;5112501;28;20073;-66
2022/07/20 06:32:36;;;;;;;17.25;14.55;;;22.40;99.90;;;;;;5112633;28;20178;-63
2022/07/20 06:35:03;;;;;;;20.92;13.38;;;22.30;99.90;;;;;;5112836;28;20076;-61
2022/07/20 06:37:28;;;;;;;21.02;15.50;;;22.10;99.90;;;;;;5111977;28;20135;-67
2022/07/20 06:39:54;;;;;;;18.02;13.00;;;22.20;99.90;;;;;;5112282;28;20099;-66
2022/07/20 06:42:20;;;;;;;19.67;15.07;;;22.70;99.90;;;;;;5112299;28;20410;-66
2022/07/20 06:44:46;;;;;;;19.52;14.75;;;22.60;99.90;;;;;;5112474;28;20477;-66
2022/07/20 06:47:13;;;;;;;17.40;13.68;;;22.60;99.90;;;;;;5112468;28;20431;-71
2022/07/20 06:49:39;;;;;;;20.13;14.10;;;22.90;99.90;;;;;;5112629;28;20024;-63
2022/07/20 06:52:05;;;;;;;20.13;14.43;;;22.90;99.90;;;;;;5112517;28;20027;-71
2022/07/20 06:54:32;;;;;;;21.33;14.60;;;22.80;99.90;;;;;;5111980;28;20019;-72
2022/07/20 06:56:58;;;;;;;20.60;14.75;;;22.90;99.90;;;;;;5112561;28;20023;-60
2022/07/20 06:59:24;;;;;;;20.13;15.27;;;22.90;99.90;;;;;;5112179;28;20373;-67
2022/07/20 07:01:50;;;;;;;19.02;14.68;;;22.60;99.90;;;;;;5112120;28;20118;-61
2022/07/20 07:04:16;;;;;;;20.77;14.98;;;22.60;99.90;;;;;;5112316;28;20028;-61
2022/07/20 07:06:42;;;;;;;21.98;14.90;;;22.60;99.90;;;;;;5112067;28;20069;-61
2022/07/20 07:09:09;;;;;;;22.70;14.00;;;22.40;99.90;;;;;;5112251;28;20024;-64
2022/07/20 07:11:35;;;;;;;20.73;14.32;;;22.40;99.90;;;;;;5112221;28;20031;-62
2022/07/20 07:14:01;;;;;;;18.75;14.13;;;22.50;99.90;;;;;;5112712;28;20099;-61
2022/07/20 07:16:27;;;;;;;16.98;13.25;;;22.40;99.90;;;;;;5112193;28;20142;-61
2022/07/20 07:18:53;;;;;;;17.98;12.95;;;22.50;99.90;;;;;;5111954;28;20392;-61
2022/07/20 07:21:18;;;;;;;17.15;11.80;;;22.80;99.90;;;;;;5112121;28;20023;-61
2022/07/20 07:23:49;;;;;;;17.42;12.63;;;22.60;99.90;;;;;;5111706;28;20036;-61
2022/07/20 07:26:21;;;;;;;15.07;11.50;;;22.80;99.90;;;;;;5112358;28;20480;-61
2022/07/20 07:28:47;;;;;;;15.20;11.35;;;22.80;99.90;;;;;;5111956;28;20034;-61
2022/07/20 07:31:15;;;;;;;13.82;10.95;;;22.60;99.90;;;;;;5111866;28;20472;-61
2022/07/20 07:33:40;;;;;;;15.52;10.00;;;22.70;99.90;;;;;;5111953;28;20059;-61
2022/07/20 07:36:07;;;;;;;14.63;10.35;;;22.70;99.90;;;;;;5111701;28;20078;-61
2022/07/20 07:38:33;;;;;;;20.73;10.73;;;22.70;99.90;;;;;;5113440;28;20027;-62
2022/07/20 07:40:58;;;;;;;17.70;9.80;;;22.80;99.90;;;;;;5115689;28;20020;-61
2022/07/20 07:43:24;;;;;;;12.23;8.32;;;22.80;99.90;;;;;;5115823;28;20385;-61
2022/07/20 07:45:50;;;;;;;12.40;8.73;;;22.80;99.90;;;;;;5097358;28;20465;-61
2022/07/20 07:48:16;;;;;;;11.63;8.23;;;22.80;99.90;;;;;;5115524;28;20031;-61
2022/07/20 07:50:43;;;;;;;12.20;7.75;;;22.90;99.90;;;;;;5115649;28;20016;-61
2022/07/20 07:53:09;;;;;;;12.50;8.10;;;23.00;99.90;;;;;;5115202;28;20058;-61
2022/07/20 07:55:36;;;;;;;14.25;8.10;;;22.90;99.90;;;;;;5115660;28;20059;-61
2022/07/20 07:58:02;;;;;;;11.65;7.43;;;22.60;99.90;;;;;;5115433;28;20107;-61
2022/07/20 08:00:28;;;;;;;12.77;7.50;;;22.70;99.90;;;;;;5115345;28;20102;-61
2022/07/20 08:02:54;;;;;;;11.55;7.10;;;22.70;99.90;;;;;;5115469;28;20043;-61
2022/07/20 08:05:21;;;;;;;11.32;6.43;;;22.70;99.90;;;;;;5115361;28;20429;-61
2022/07/20 08:07:46;;;;;;;10.73;6.22;;;22.90;99.90;;;;;;5114729;28;20068;-61
2022/07/20 08:10:12;;;;;;;9.57;6.10;;;23.00;99.90;;;;;;5114986;28;20028;-61
2022/07/20 08:12:38;;;;;;;13.10;5.78;;;23.20;99.90;;;;;;5115574;28;20032;-61
2022/07/20 08:15:05;;;;;;;11.20;5.85;;;22.80;99.90;;;;;;5115035;28;20396;-61
2022/07/20 08:17:31;;;;;;;12.65;5.65;;;22.60;99.90;;;;;;5114867;28;20487;-61
2022/07/20 08:19:57;;;;;;;10.50;5.53;;;23.10;99.90;;;;;;5115391;28;20023;-60
2022/07/20 08:22:23;;;;;;;11.65;5.30;;;23.50;99.90;;;;;;5114471;28;20035;-61
2022/07/20 08:24:49;;;;;;;11.95;5.10;;;23.30;99.90;;;;;;5114907;28;20027;-60
2022/07/20 08:27:15;;;;;;;10.93;4.90;;;22.70;99.90;;;;;;5096598;28;20111;-61
2022/07/20 08:29:41;;;;;;;7.80;4.47;;;22.90;99.90;;;;;;5114687;28;20477;-61
2022/07/20 08:32:06;;;;;;;9.27;4.70;;;23.10;99.90;;;;;;5114443;28;20051;-62
2022/07/20 08:34:32;;;;;;;8.88;4.45;;;23.30;99.90;;;;;;5115031;28;20499;-61
2022/07/20 08:36:58;;;;;;;11.68;4.20;;;23.40;99.90;;;;;;5113684;28;20124;-61
2022/07/20 08:39:25;;;;;;;11.10;4.03;;;23.10;99.90;;;;;;5114901;28;20468;-61
2022/07/20 08:41:51;;;;;;;10.45;4.00;;;23.30;99.90;;;;;;5114332;28;20042;-61
2022/07/20 08:44:17;;;;;;;9.05;4.00;;;23.20;99.90;;;;;;5114491;28;20098;-61
2022/07/20 08:46:44;;;;;;;9.30;4.05;;;23.10;99.90;;;;;;5114444;28;20019;-61
2022/07/20 08:49:12;;;;;;;9.88;3.90;;;23.40;99.90;;;;;;5113392;28;20094;-61
2022/07/20 08:51:38;;;;;;;11.77;4.05;;;23.30;99.90;;;;;;5114287;28;20026;-61
2022/07/20 08:54:04;;;;;;;8.00;4.43;;;23.90;99.90;;;;;;5114235;28;20046;-62
2022/07/20 08:56:30;;;;;;;8.18;3.90;;;24.50;99.90;;;;;;5114268;28;20531;-61
2022/07/20 08:58:55;;;;;;;7.93;3.92;;;24.90;99.90;;;;;;5114264;28;20107;-61
2022/07/20 09:01:21;;;;;;;9.75;4.15;;;24.60;99.90;;;;;;5114409;28;20062;-60
2022/07/20 09:04:11;;;;;;;7.43;4.35;;;25.50;99.90;;;;;;5114210;28;20035;-61
2022/07/20 09:06:48;;;;;;;8.32;3.80;;;25.90;99.90;;;;;;5113658;28;20077;-61
2022/07/20 09:09:14;;;;;;;8.68;3.70;;;25.70;99.90;;;;;;5113946;28;20076;-60
2022/07/20 09:11:40;;;;;;;10.57;3.88;;;26.30;99.90;;;;;;5114121;28;20027;-61
2022/07/20 09:14:06;;;;;;;11.35;4.07;;;25.60;99.90;;;;;;5114289;28;20036;-60
2022/07/20 09:16:33;;;;;;;10.45;4.07;;;25.60;99.90;;;;;;5113711;28;20023;-60
2022/07/20 09:18:59;;;;;;;11.30;4.05;;;25.60;99.90;;;;;;5113738;28;20031;-60
2022/07/20 09:21:29;;;;;;;10.23;3.72;;;26.00;99.90;;;;;;5113167;28;20552;-60
2022/07/20 09:23:56;;;;;;;8.07;3.85;;;25.80;99.90;;;;;;5113939;28;20437;-60
2022/07/20 09:26:24;;;;;;;8.90;6.18;;;25.50;99.90;;;;;;5096007;28;20028;-60
2022/07/20 09:28:54;;;;;;;11.50;5.38;;;25.40;99.90;;;;;;5113630;28;20026;-60
2022/07/20 09:31:22;;;;;;;12.25;5.57;;;25.40;99.90;;;;;;5112433;28;20070;-61
2022/07/20 09:33:54;;;;;;;9.88;5.10;;;25.60;99.90;;;;;;5080101;28;20024;-59
2022/07/20 09:36:22;;;;;;;9.50;5.60;;;25.70;99.90;;;;;;5085452;28;20051;-60
2022/07/20 09:38:47;;;;;;;9.77;5.43;;;25.60;99.90;;;;;;5092385;28;20044;-59
2022/07/20 09:41:27;;;;;;;12.00;5.28;;;25.40;99.90;;;;;;5074023;28;20433;-60
2022/07/20 09:43:54;;;;;;;7.97;4.60;;;25.50;99.90;;;;;;5089888;28;20103;-60
2022/07/20 09:46:28;;;;;;;9.75;5.53;;;25.50;99.90;;;;;;5092192;28;20024;-59
2022/07/20 09:48:56;;;;;;;11.95;5.75;;;25.10;99.90;;;;;;5089455;28;20032;-59
2022/07/20 09:51:42;;;;;;;17.90;6.15;;;24.60;99.90;;;;;;5092210;28;20480;-60
2022/07/20 09:54:17;;;;;;;11.65;5.80;;;24.70;99.90;;;;;;5092146;28;20084;-58
2022/07/20 09:56:52;;;;;;;10.40;6.03;;;25.00;99.90;;;;;;5092777;28;20020;-59
2022/07/20 09:59:19;;;;;;;14.25;6.60;;;25.20;99.90;;;;;;5092490;28;20476;-58
2022/07/20 10:01:54;;;;;;;11.20;5.72;;;25.30;99.90;;;;;;5091954;28;20035;-58
2022/07/20 10:04:21;;;;;;;11.13;6.40;;;25.50;99.90;;;;;;5092541;28;20027;-58
2022/07/20 10:06:50;;;;;;;10.85;5.47;;;26.00;99.90;;;;;;5092595;28;20107;-60
2022/07/20 10:09:17;;;;;;;10.20;5.18;;;25.90;99.90;;;;;;5092470;28;20103;-59
2022/07/20 10:11:43;;;;;;;11.23;5.68;;;25.70;99.90;;;;;;5092438;28;20020;-59
2022/07/20 10:14:10;;;;;;;12.20;5.68;;;26.00;99.90;;;;;;5092281;28;20020;-57
2022/07/20 10:16:44;;;;;;;12.27;5.22;;;25.80;99.90;;;;;;5091984;28;20024;-58
2022/07/20 10:19:10;;;;;;;9.07;5.00;;;25.50;99.90;;;;;;5092085;28;20028;-59
2022/07/20 10:21:40;;;;;;;13.55;5.55;;;25.80;99.90;;;;;;5092178;28;20032;-57
2022/07/20 10:24:18;;;;;;;11.20;6.05;;;26.30;99.90;;;;;;5092828;28;20035;-57
2022/07/20 10:26:49;;;;;;;10.23;5.85;;;26.90;99.90;;;;;;5092331;28;20020;-57
2022/07/20 10:29:34;;;;;;;8.48;5.40;;;27.40;99.90;;;;;;5092175;28;20020;-57
2022/07/20 10:32:24;;;;;;;9.75;5.35;;;26.90;99.90;;;;;;5091951;28;20017;-57
2022/07/20 10:34:55;;;;;;;12.00;5.55;;;27.00;99.90;;;;;;5092019;28;20062;-56
2022/07/20 10:37:23;;;;;;;7.78;4.90;;;26.60;99.90;;;;;;5091629;28;20042;-55
2022/07/20 10:39:51;;;;;;;9.93;5.38;;;26.90;99.90;;;;;;5091449;28;20032;-56
2022/07/20 10:42:27;;;;;;;9.70;5.20;;;27.20;99.90;;;;;;5091728;28;20542;-57
2022/07/20 10:44:54;;;;;;;12.48;6.10;;;27.40;99.90;;;;;;5091901;28;20028;-57
2022/07/20 10:47:49;;;;;;;10.65;6.13;;;27.10;99.90;;;;;;5092145;28;20031;-58
2022/07/20 10:50:21;;;;;;;9.95;6.22;;;27.20;99.90;;;;;;5091854;28;20032;-59
2022/07/20 10:52:48;;;;;;;12.23;6.68;;;27.90;99.90;;;;;;5074539;28;20089;-59
2022/07/20 10:55:37;;;;;;;9.70;6.30;;;27.60;99.90;;;;;;5091883;28;20099;-58
2022/07/20 10:58:15;;;;;;;22.08;6.05;;;27.60;99.90;;;;;;5084004;28;20497;-48
2022/07/20 11:01:01;;;;;;;9.40;5.32;;;28.00;99.90;;;;;;5091940;28;20028;-44
2022/07/20 11:03:37;;;;;;;9.90;4.90;;;27.40;99.90;;;;;;5091709;28;20035;-49
2022/07/20 11:06:10;;;;;;;9.40;5.10;;;27.00;99.90;;;;;;5092023;28;20074;-50
2022/07/20 11:08:38;;;;;;;13.20;5.40;;;27.00;99.90;;;;;;5092062;28;20036;-46
2022/07/20 11:11:04;;;;;;;11.15;4.32;;;27.70;99.90;;;;;;5091481;28;20016;-49
2022/07/20 11:13:31;;;;;;;9.88;5.15;;;27.70;99.90;;;;;;5093647;28;20056;-48
2022/07/20 11:16:01;;;;;;;10.13;5.35;;;28.00;99.90;;;;;;5095537;28;20365;-47
2022/07/20 11:18:32;;;;;;;8.57;5.25;;;27.70;99.90;;;;;;5096203;28;20055;-48
2022/07/20 11:20:59;;;;;;;11.82;5.60;;;27.60;99.90;;;;;;5095529;28;20394;-49
2022/07/20 11:23:47;;;;;;;10.75;5.80;;;27.80;99.90;;;;;;5095286;28;20384;-49
2022/07/20 11:26:15;;;;;;;11.90;5.82;;;27.80;99.90;;;;;;5095565;28;20481;-49
2022/07/20 11:28:48;;;;;;;10.55;6.00;;;27.80;99.90;;;;;;5094414;28;20099;-46
2022/07/20 11:31:25;;;;;;;10.38;5.95;;;27.90;99.40;;;;;;5094329;28;20028;-50
2022/07/20 11:33:52;;;;;;;8.45;5.68;;;27.70;99.10;;;;;;5093589;28;20039;-46
2022/07/20 11:36:26;;;;;;;10.50;5.50;;;27.50;99.90;;;;;;5094462;28;20036;-46
2022/07/20 11:38:59;;;;;;;10.68;5.40;;;27.30;99.80;;;;;;5094617;28;20110;-49
2022/07/20 11:41:35;;;;;;;10.93;5.20;;;27.50;99.90;;;;;;5092494;28;20048;-46
2022/07/20 11:44:04;;;;;;;9.52;5.78;;;27.60;99.90;;;;;;5083789;28;20028;-47
2022/07/20 11:46:42;;;;;;;9.43;5.50;;;27.30;99.90;;;;;;5094583;28;20016;-49
2022/07/20 11:49:13;;;;;;;8.98;5.20;;;26.90;99.90;;;;;;5084594;28;20039;-47
2022/07/20 11:51:40;;;;;;;8.63;5.53;;;26.80;99.90;;;;;;5094451;28;20069;-49
2022/07/20 11:54:06;;;;;;;9.77;5.93;;;27.00;99.90;;;;;;5094882;28;20521;-48
2022/07/20 11:56:33;;;;;;;10.80;6.13;;;27.30;99.90;;;;;;5094202;28;20481;-44
2022/07/20 11:59:00;;;;;;;10.90;5.88;;;27.70;99.90;;;;;;5094802;28;20158;-47
2022/07/20 12:01:31;;;;;;;11.10;6.00;;;27.20;99.90;;;;;;5094719;28;20036;-46
2022/07/20 12:04:02;;;;;;;8.27;5.30;;;27.50;99.90;;;;;;5094890;28;20020;-47
2022/07/20 12:06:30;;;;;;;10.75;6.05;;;27.70;99.90;;;;;;5094345;28;20028;-47
2022/07/20 12:09:11;;;;;;;8.35;5.88;;;27.50;99.90;;;;;;5093613;28;20496;-50
2022/07/20 12:11:54;;;;;;;13.13;6.32;;;27.30;99.90;;;;;;5093850;28;20099;-48
2022/07/20 12:14:30;;;;;;;11.60;5.60;;;27.50;99.90;;;;;;5091267;28;20023;-47
2022/07/20 12:17:09;;;;;;;11.10;6.40;;;28.00;99.90;;;;;;5094190;28;20028;-48
2022/07/20 12:19:35;;;;;;;11.43;7.38;;;28.10;99.60;;;;;;5093822;28;20477;-45
2022/07/20 12:22:01;;;;;;;12.18;7.25;;;28.00;99.90;;;;;;5093593;28;20027;-48
2022/07/20 12:24:26;;;;;;;12.00;6.88;;;27.90;99.90;;;;;;5093801;28;20082;-45
2022/07/20 12:27:04;;;;;;;10.40;6.93;;;27.80;99.90;;;;;;5094273;28;20031;-45
2022/07/20 12:29:30;;;;;;;12.02;7.57;;;27.70;99.90;;;;;;5094503;28;20020;-47
2022/07/20 12:32:05;;;;;;;11.02;7.13;;;27.60;99.90;;;;;;5094484;28;20108;-46
2022/07/20 12:34:51;;;;;;;11.77;7.40;;;27.60;99.90;;;;;;5094319;28;20407;-45
2022/07/20 12:37:17;;;;;;;14.23;7.78;;;27.90;99.80;;;;;;5093951;28;20040;-44
2022/07/20 12:39:53;;;;;;;11.13;7.30;;;28.20;99.20;;;;;;5093851;28;20036;-50
2022/07/20 12:42:24;;;;;;;11.27;7.07;;;27.80;99.20;;;;;;5093455;28;20028;-46
2022/07/20 12:45:01;;;;;;;12.57;7.40;;;27.80;99.30;;;;;;5093817;28;20489;-44
2022/07/20 12:47:27;;;;;;;8.73;7.10;;;28.00;98.80;;;;;;5094259;28;20034;-49